sensor_id;sensor_type;location;lat;lon;timestamp;temperature;humidity
71047;SHT31;58703;48.978;8.982;2022-09-13T00:00:26;11.23;93.06
71047;SHT31;58703;48.978;8.982;2022-09-13T00:02:52;11.13;93.95
71047;SHT31;58703;48.978;8.982;2022-09-13T00:05:17;11.03;94.54
71047;SHT31;58703;48.978;8.982;2022-09-13T00:07:43;10.95;94.87
71047;SHT31;58703;48.978;8.982;2022-09-13T00:10:08;10.92;94.12
71047;SHT31;58703;48.978;8.982;2022-09-13T00:12:34;11.13;93.88
71047;SHT31;58703;48.978;8.982;2022-09-13T00:14:59;11.11;93.46
71047;SHT31;58703;48.978;8.982;2022-09-13T00:17:25;11.01;94.66
71047;SHT31;58703;48.978;8.982;2022-09-13T00:19:51;11.01;94.87
71047;SHT31;58703;48.978;8.982;2022-09-13T00:22:17;10.96;94.99
71047;SHT31;58703;48.978;8.982;2022-09-13T00:24:42;10.98;95.36
71047;SHT31;58703;48.978;8.982;2022-09-13T00:27:08;10.99;95.21
71047;SHT31;58703;48.978;8.982;2022-09-13T00:29:33;11.01;95.17
71047;SHT31;58703;48.978;8.982;2022-09-13T00:31:59;10.98;95.01
71047;SHT31;58703;48.978;8.982;2022-09-13T00:34:25;11.03;95.05
71047;SHT31;58703;48.978;8.982;2022-09-13T00:36:50;10.98;94.60
71047;SHT31;58703;48.978;8.982;2022-09-13T00:39:16;10.89;94.60
71047;SHT31;58703;48.978;8.982;2022-09-13T00:41:41;10.98;94.68
71047;SHT31;58703;48.978;8.982;2022-09-13T00:47:13;10.91;94.08
71047;SHT31;58703;48.978;8.982;2022-09-13T00:49:41;10.78;94.34
71047;SHT31;58703;48.978;8.982;2022-09-13T00:52:14;10.85;95.33
71047;SHT31;58703;48.978;8.982;2022-09-13T00:54:54;10.95;95.10
71047;SHT31;58703;48.978;8.982;2022-09-13T00:57:21;11.01;94.94
71047;SHT31;58703;48.978;8.982;2022-09-13T01:00:07;11.05;93.73
71047;SHT31;58703;48.978;8.982;2022-09-13T01:02:37;10.93;94.66
71047;SHT31;58703;48.978;8.982;2022-09-13T01:05:04;11.05;94.80
71047;SHT31;58703;48.978;8.982;2022-09-13T01:07:30;10.95;94.28
71047;SHT31;58703;48.978;8.982;2022-09-13T01:09:56;10.81;94.44
71047;SHT31;58703;48.978;8.982;2022-09-13T01:12:32;10.73;94.58
71047;SHT31;58703;48.978;8.982;2022-09-13T01:15:00;10.55;95.03
71047;SHT31;58703;48.978;8.982;2022-09-13T01:17:29;10.47;95.73
71047;SHT31;58703;48.978;8.982;2022-09-13T01:19:55;10.37;95.84
71047;SHT31;58703;48.978;8.982;2022-09-13T01:30:46;10.40;96.94
71047;SHT31;58703;48.978;8.982;2022-09-13T01:33:47;10.34;95.94
71047;SHT31;58703;48.978;8.982;2022-09-13T01:36:38;10.24;97.41
71047;SHT31;58703;48.978;8.982;2022-09-13T01:39:16;10.22;98.00
71047;SHT31;58703;48.978;8.982;2022-09-13T01:42:02;10.28;97.90
71047;SHT31;58703;48.978;8.982;2022-09-13T01:44:43;10.27;98.22
71047;SHT31;58703;48.978;8.982;2022-09-13T01:47:29;10.27;97.94
71047;SHT31;58703;48.978;8.982;2022-09-13T01:57:56;10.31;97.03
71047;SHT31;58703;48.978;8.982;2022-09-13T02:00:27;10.27;97.46
71047;SHT31;58703;48.978;8.982;2022-09-13T02:03:13;10.18;97.78
71047;SHT31;58703;48.978;8.982;2022-09-13T02:05:50;10.14;97.05
71047;SHT31;58703;48.978;8.982;2022-09-13T02:11:05;10.09;97.73
71047;SHT31;58703;48.978;8.982;2022-09-13T02:13:36;10.07;97.46
71047;SHT31;58703;48.978;8.982;2022-09-13T02:16:35;10.10;98.50
71047;SHT31;58703;48.978;8.982;2022-09-13T02:19:09;10.13;98.38
71047;SHT31;58703;48.978;8.982;2022-09-13T02:21:39;10.14;98.30
71047;SHT31;58703;48.978;8.982;2022-09-13T02:24:13;10.14;98.61
71047;SHT31;58703;48.978;8.982;2022-09-13T02:26:40;10.17;98.45
71047;SHT31;58703;48.978;8.982;2022-09-13T02:29:10;10.10;98.08
71047;SHT31;58703;48.978;8.982;2022-09-13T02:31:41;10.10;98.20
71047;SHT31;58703;48.978;8.982;2022-09-13T02:34:14;10.13;98.51
71047;SHT31;58703;48.978;8.982;2022-09-13T02:36:43;10.10;98.97
71047;SHT31;58703;48.978;8.982;2022-09-13T02:39:15;10.07;99.15
71047;SHT31;58703;48.978;8.982;2022-09-13T02:41:47;10.09;99.16
71047;SHT31;58703;48.978;8.982;2022-09-13T02:44:35;10.00;98.84
71047;SHT31;58703;48.978;8.982;2022-09-13T02:49:56;9.90;98.75
71047;SHT31;58703;48.978;8.982;2022-09-13T02:52:37;9.87;98.90
71047;SHT31;58703;48.978;8.982;2022-09-13T02:55:17;9.89;98.58
71047;SHT31;58703;48.978;8.982;2022-09-13T03:00:15;9.85;99.10
71047;SHT31;58703;48.978;8.982;2022-09-13T03:02:41;9.89;99.16
71047;SHT31;58703;48.978;8.982;2022-09-13T03:05:08;9.99;98.46
71047;SHT31;58703;48.978;8.982;2022-09-13T03:07:34;9.87;98.38
71047;SHT31;58703;48.978;8.982;2022-09-13T03:10:02;9.89;98.38
71047;SHT31;58703;48.978;8.982;2022-09-13T03:26:24;9.70;99.32
71047;SHT31;58703;48.978;8.982;2022-09-13T03:34:32;9.65;99.81
71047;SHT31;58703;48.978;8.982;2022-09-13T03:39:42;9.66;99.99
71047;SHT31;58703;48.978;8.982;2022-09-13T03:42:27;9.72;99.99
71047;SHT31;58703;48.978;8.982;2022-09-13T03:44:55;9.76;99.95
71047;SHT31;58703;48.978;8.982;2022-09-13T03:47:24;9.76;99.76
71047;SHT31;58703;48.978;8.982;2022-09-13T03:49:52;9.65;99.20
71047;SHT31;58703;48.978;8.982;2022-09-13T03:52:19;9.56;99.51
71047;SHT31;58703;48.978;8.982;2022-09-13T03:54:45;9.50;99.69
71047;SHT31;58703;48.978;8.982;2022-09-13T03:57:19;9.52;99.85
71047;SHT31;58703;48.978;8.982;2022-09-13T03:59:50;9.52;99.74
71047;SHT31;58703;48.978;8.982;2022-09-13T04:02:18;9.45;99.70
71047;SHT31;58703;48.978;8.982;2022-09-13T04:04:45;9.48;99.99
71047;SHT31;58703;48.978;8.982;2022-09-13T04:07:13;9.56;99.80
71047;SHT31;58703;48.978;8.982;2022-09-13T04:09:40;9.48;99.25
71047;SHT31;58703;48.978;8.982;2022-09-13T04:12:06;9.50;99.29
71047;SHT31;58703;48.978;8.982;2022-09-13T04:14:32;9.50;99.27
71047;SHT31;58703;48.978;8.982;2022-09-13T04:16:57;9.42;99.38
71047;SHT31;58703;48.978;8.982;2022-09-13T04:19:24;9.55;99.34
71047;SHT31;58703;48.978;8.982;2022-09-13T04:21:51;9.55;99.42
71047;SHT31;58703;48.978;8.982;2022-09-13T04:24:17;9.63;99.35
71047;SHT31;58703;48.978;8.982;2022-09-13T04:26:47;9.63;99.39
71047;SHT31;58703;48.978;8.982;2022-09-13T04:29:15;9.69;99.34
71047;SHT31;58703;48.978;8.982;2022-09-13T04:31:40;9.62;99.42
71047;SHT31;58703;48.978;8.982;2022-09-13T04:34:05;9.70;99.52
71047;SHT31;58703;48.978;8.982;2022-09-13T04:36:32;9.70;99.42
71047;SHT31;58703;48.978;8.982;2022-09-13T04:38:59;9.66;99.57
71047;SHT31;58703;48.978;8.982;2022-09-13T04:41:25;9.75;99.60
71047;SHT31;58703;48.978;8.982;2022-09-13T04:43:51;9.82;99.53
71047;SHT31;58703;48.978;8.982;2022-09-13T04:46:17;9.83;99.74
71047;SHT31;58703;48.978;8.982;2022-09-13T04:48:53;9.90;99.85
71047;SHT31;58703;48.978;8.982;2022-09-13T04:51:20;9.99;99.86
71047;SHT31;58703;48.978;8.982;2022-09-13T04:53:50;10.13;99.51
71047;SHT31;58703;48.978;8.982;2022-09-13T04:56:18;10.17;99.20
71047;SHT31;58703;48.978;8.982;2022-09-13T04:58:44;10.24;99.11
71047;SHT31;58703;48.978;8.982;2022-09-13T05:01:10;10.14;98.12
71047;SHT31;58703;48.978;8.982;2022-09-13T05:03:36;10.09;98.38
71047;SHT31;58703;48.978;8.982;2022-09-13T05:06:10;10.10;98.56
71047;SHT31;58703;48.978;8.982;2022-09-13T05:08:54;10.18;98.74
71047;SHT31;58703;48.978;8.982;2022-09-13T05:11:21;10.18;98.58
71047;SHT31;58703;48.978;8.982;2022-09-13T05:13:53;10.16;98.53
71047;SHT31;58703;48.978;8.982;2022-09-13T05:16:24;10.27;98.22
71047;SHT31;58703;48.978;8.982;2022-09-13T05:18:51;10.51;97.65
71047;SHT31;58703;48.978;8.982;2022-09-13T05:21:18;10.67;97.50
71047;SHT31;58703;48.978;8.982;2022-09-13T05:23:47;10.89;96.85
71047;SHT31;58703;48.978;8.982;2022-09-13T05:26:13;10.95;95.55
71047;SHT31;58703;48.978;8.982;2022-09-13T05:28:40;10.76;95.53
71047;SHT31;58703;48.978;8.982;2022-09-13T05:31:12;10.54;96.37
71047;SHT31;58703;48.978;8.982;2022-09-13T05:33:41;10.50;96.81
71047;SHT31;58703;48.978;8.982;2022-09-13T05:36:07;10.48;97.25
71047;SHT31;58703;48.978;8.982;2022-09-13T05:38:34;10.55;97.67
71047;SHT31;58703;48.978;8.982;2022-09-13T05:41:01;10.62;97.48
71047;SHT31;58703;48.978;8.982;2022-09-13T05:43:31;10.68;97.37
71047;SHT31;58703;48.978;8.982;2022-09-13T05:46:05;10.82;97.54
71047;SHT31;58703;48.978;8.982;2022-09-13T05:48:33;11.18;96.32
71047;SHT31;58703;48.978;8.982;2022-09-13T05:51:08;11.29;95.67
71047;SHT31;58703;48.978;8.982;2022-09-13T05:53:38;11.50;95.09
71047;SHT31;58703;48.978;8.982;2022-09-13T05:56:05;11.43;95.12
71047;SHT31;58703;48.978;8.982;2022-09-13T05:58:31;11.50;94.32
71047;SHT31;58703;48.978;8.982;2022-09-13T06:00:58;11.67;94.20
71047;SHT31;58703;48.978;8.982;2022-09-13T06:03:23;11.83;92.45
71047;SHT31;58703;48.978;8.982;2022-09-13T06:05:54;11.84;93.79
71047;SHT31;58703;48.978;8.982;2022-09-13T06:08:24;11.84;94.20
71047;SHT31;58703;48.978;8.982;2022-09-13T06:10:58;11.93;94.40
71047;SHT31;58703;48.978;8.982;2022-09-13T06:13:24;12.01;93.61
71047;SHT31;58703;48.978;8.982;2022-09-13T06:15:53;12.13;93.11
71047;SHT31;58703;48.978;8.982;2022-09-13T06:18:21;12.14;92.49
71047;SHT31;58703;48.978;8.982;2022-09-13T06:20:48;12.11;92.49
71047;SHT31;58703;48.978;8.982;2022-09-13T06:23:16;12.22;92.52
71047;SHT31;58703;48.978;8.982;2022-09-13T06:25:42;12.13;92.77
71047;SHT31;58703;48.978;8.982;2022-09-13T06:28:08;12.15;92.26
71047;SHT31;58703;48.978;8.982;2022-09-13T06:30:34;12.13;92.67
71047;SHT31;58703;48.978;8.982;2022-09-13T06:33:00;12.26;92.42
71047;SHT31;58703;48.978;8.982;2022-09-13T06:35:26;12.49;91.34
71047;SHT31;58703;48.978;8.982;2022-09-13T06:37:55;12.80;90.15
71047;SHT31;58703;48.978;8.982;2022-09-13T06:40:24;13.11;89.17
71047;SHT31;58703;48.978;8.982;2022-09-13T06:42:49;13.27;88.46
71047;SHT31;58703;48.978;8.982;2022-09-13T06:45:15;13.62;87.12
71047;SHT31;58703;48.978;8.982;2022-09-13T06:47:41;13.91;85.36
71047;SHT31;58703;48.978;8.982;2022-09-13T06:50:07;14.28;84.32
71047;SHT31;58703;48.978;8.982;2022-09-13T06:52:33;14.52;83.91
71047;SHT31;58703;48.978;8.982;2022-09-13T06:54:59;14.52;84.03
71047;SHT31;58703;48.978;8.982;2022-09-13T06:57:25;14.49;84.57
71047;SHT31;58703;48.978;8.982;2022-09-13T06:59:54;14.74;84.23
71047;SHT31;58703;48.978;8.982;2022-09-13T07:02:19;15.08;83.04
71047;SHT31;58703;48.978;8.982;2022-09-13T07:04:45;15.23;81.71
71047;SHT31;58703;48.978;8.982;2022-09-13T07:07:11;15.36;81.65
71047;SHT31;58703;48.978;8.982;2022-09-13T07:09:36;15.63;81.15
71047;SHT31;58703;48.978;8.982;2022-09-13T07:12:04;15.76;81.32
71047;SHT31;58703;48.978;8.982;2022-09-13T07:14:30;15.99;79.97
71047;SHT31;58703;48.978;8.982;2022-09-13T07:16:55;16.31;79.88
71047;SHT31;58703;48.978;8.982;2022-09-13T07:19:23;16.56;78.64
71047;SHT31;58703;48.978;8.982;2022-09-13T07:21:51;16.74;77.86
71047;SHT31;58703;48.978;8.982;2022-09-13T07:24:18;16.54;78.40
71047;SHT31;58703;48.978;8.982;2022-09-13T07:26:44;17.05;77.88
71047;SHT31;58703;48.978;8.982;2022-09-13T07:29:14;17.22;76.67
71047;SHT31;58703;48.978;8.982;2022-09-13T07:31:46;17.00;77.28
71047;SHT31;58703;48.978;8.982;2022-09-13T07:34:14;17.07;77.16
71047;SHT31;58703;48.978;8.982;2022-09-13T07:36:41;17.42;76.89
71047;SHT31;58703;48.978;8.982;2022-09-13T07:39:07;17.56;75.73
71047;SHT31;58703;48.978;8.982;2022-09-13T07:41:33;17.65;75.82
71047;SHT31;58703;48.978;8.982;2022-09-13T07:43:59;17.73;75.37
71047;SHT31;58703;48.978;8.982;2022-09-13T07:46:28;17.91;75.09
71047;SHT31;58703;48.978;8.982;2022-09-13T07:48:57;17.91;74.88
71047;SHT31;58703;48.978;8.982;2022-09-13T07:51:28;17.93;74.66
71047;SHT31;58703;48.978;8.982;2022-09-13T07:53:56;18.03;75.14
71047;SHT31;58703;48.978;8.982;2022-09-13T07:56:31;17.97;75.40
71047;SHT31;58703;48.978;8.982;2022-09-13T07:58:59;17.98;75.55
71047;SHT31;58703;48.978;8.982;2022-09-13T08:01:25;18.27;76.09
71047;SHT31;58703;48.978;8.982;2022-09-13T08:03:53;18.33;75.70
71047;SHT31;58703;48.978;8.982;2022-09-13T08:06:20;18.49;74.75
71047;SHT31;58703;48.978;8.982;2022-09-13T08:08:46;18.86;74.47
71047;SHT31;58703;48.978;8.982;2022-09-13T08:11:17;19.07;73.30
71047;SHT31;58703;48.978;8.982;2022-09-13T08:13:47;19.10;72.14
71047;SHT31;58703;48.978;8.982;2022-09-13T08:16:14;19.22;72.46
71047;SHT31;58703;48.978;8.982;2022-09-13T08:18:49;19.12;72.53
71047;SHT31;58703;48.978;8.982;2022-09-13T08:21:16;19.24;72.16
71047;SHT31;58703;48.978;8.982;2022-09-13T08:23:42;18.94;72.30
71047;SHT31;58703;48.978;8.982;2022-09-13T08:26:08;19.40;71.07
71047;SHT31;58703;48.978;8.982;2022-09-13T08:28:36;19.75;70.12
71047;SHT31;58703;48.978;8.982;2022-09-13T08:31:07;19.97;70.45
71047;SHT31;58703;48.978;8.982;2022-09-13T08:33:33;20.18;68.67
71047;SHT31;58703;48.978;8.982;2022-09-13T08:36:00;20.36;68.20
71047;SHT31;58703;48.978;8.982;2022-09-13T08:38:26;20.14;68.87
71047;SHT31;58703;48.978;8.982;2022-09-13T08:40:54;20.52;68.21
71047;SHT31;58703;48.978;8.982;2022-09-13T08:44:02;20.80;67.10
71047;SHT31;58703;48.978;8.982;2022-09-13T08:46:44;21.11;65.64
71047;SHT31;58703;48.978;8.982;2022-09-13T08:49:17;20.93;66.26
71047;SHT31;58703;48.978;8.982;2022-09-13T08:51:49;21.04;65.56
71047;SHT31;58703;48.978;8.982;2022-09-13T08:54:17;21.20;65.92
71047;SHT31;58703;48.978;8.982;2022-09-13T09:02:10;21.47;64.80
71047;SHT31;58703;48.978;8.982;2022-09-13T09:10:34;21.98;63.27
71047;SHT31;58703;48.978;8.982;2022-09-13T09:13:12;22.50;61.62
71047;SHT31;58703;48.978;8.982;2022-09-13T09:15:43;22.87;60.02
71047;SHT31;58703;48.978;8.982;2022-09-13T09:18:32;22.84;60.70
71047;SHT31;58703;48.978;8.982;2022-09-13T09:21:00;22.87;60.31
71047;SHT31;58703;48.978;8.982;2022-09-13T09:23:54;23.01;59.94
71047;SHT31;58703;48.978;8.982;2022-09-13T09:26:22;22.56;60.55
71047;SHT31;58703;48.978;8.982;2022-09-13T09:31:34;22.70;59.98
71047;SHT31;58703;48.978;8.982;2022-09-13T09:36:44;23.15;58.70
71047;SHT31;58703;48.978;8.982;2022-09-13T09:39:13;23.41;58.15
71047;SHT31;58703;48.978;8.982;2022-09-13T09:41:42;24.02;57.58
71047;SHT31;58703;48.978;8.982;2022-09-13T09:44:22;24.00;57.20
71047;SHT31;58703;48.978;8.982;2022-09-13T09:47:24;24.03;55.73
71047;SHT31;58703;48.978;8.982;2022-09-13T09:50:18;24.06;56.34
71047;SHT31;58703;48.978;8.982;2022-09-13T09:58:10;24.80;55.46
71047;SHT31;58703;48.978;8.982;2022-09-13T10:00:57;24.61;55.17
71047;SHT31;58703;48.978;8.982;2022-09-13T10:03:25;23.99;56.67
71047;SHT31;58703;48.978;8.982;2022-09-13T10:06:14;23.61;58.45
71047;SHT31;58703;48.978;8.982;2022-09-13T10:08:47;23.86;57.43
71047;SHT31;58703;48.978;8.982;2022-09-13T10:11:19;24.60;55.62
71047;SHT31;58703;48.978;8.982;2022-09-13T10:14:01;25.15;53.61
71047;SHT31;58703;48.978;8.982;2022-09-13T10:16:30;25.05;53.89
71047;SHT31;58703;48.978;8.982;2022-09-13T10:19:22;25.35;52.07
71047;SHT31;58703;48.978;8.982;2022-09-13T10:22:10;25.67;50.95
71047;SHT31;58703;48.978;8.982;2022-09-13T10:24:37;26.21;50.79
71047;SHT31;58703;48.978;8.982;2022-09-13T10:27:04;26.59;49.01
71047;SHT31;58703;48.978;8.982;2022-09-13T10:29:30;26.61;49.44
71047;SHT31;58703;48.978;8.982;2022-09-13T10:31:56;27.50;48.19
71047;SHT31;58703;48.978;8.982;2022-09-13T10:34:32;27.80;48.26
71047;SHT31;58703;48.978;8.982;2022-09-13T10:37:26;27.42;46.88
71047;SHT31;58703;48.978;8.982;2022-09-13T10:40:02;27.45;47.95
71047;SHT31;58703;48.978;8.982;2022-09-13T10:42:30;27.96;44.90
71047;SHT31;58703;48.978;8.982;2022-09-13T10:45:01;28.29;45.04
71047;SHT31;58703;48.978;8.982;2022-09-13T10:47:33;27.80;46.17
71047;SHT31;58703;48.978;8.982;2022-09-13T10:50:18;27.25;46.42
71047;SHT31;58703;48.978;8.982;2022-09-13T10:52:55;28.03;48.10
71047;SHT31;58703;48.978;8.982;2022-09-13T10:57:48;29.43;44.09
71047;SHT31;58703;48.978;8.982;2022-09-13T11:05:56;29.44;43.11
71047;SHT31;58703;48.978;8.982;2022-09-13T11:11:42;29.54;40.21
71047;SHT31;58703;48.978;8.982;2022-09-13T11:14:35;28.91;40.50
71047;SHT31;58703;48.978;8.982;2022-09-13T11:17:17;28.64;42.51
71047;SHT31;58703;48.978;8.982;2022-09-13T11:25:46;29.53;38.91
71047;SHT31;58703;48.978;8.982;2022-09-13T11:33:42;29.56;38.98
71047;SHT31;58703;48.978;8.982;2022-09-13T11:36:28;29.67;38.66
71047;SHT31;58703;48.978;8.982;2022-09-13T11:44:31;28.13;39.90
71047;SHT31;58703;48.978;8.982;2022-09-13T11:55:25;28.65;37.47
71047;SHT31;58703;48.978;8.982;2022-09-13T11:58:15;29.67;34.47
71047;SHT31;58703;48.978;8.982;2022-09-13T12:00:52;29.44;35.11
71047;SHT31;58703;48.978;8.982;2022-09-13T12:06:26;30.27;34.64
71047;SHT31;58703;48.978;8.982;2022-09-13T12:08:58;30.70;33.69
71047;SHT31;58703;48.978;8.982;2022-09-13T12:11:31;29.34;35.04
71047;SHT31;58703;48.978;8.982;2022-09-13T12:13:59;28.41;36.69
71047;SHT31;58703;48.978;8.982;2022-09-13T12:16:57;28.47;36.67
71047;SHT31;58703;48.978;8.982;2022-09-13T12:19:35;28.89;38.71
71047;SHT31;58703;48.978;8.982;2022-09-13T12:22:05;28.45;39.93
71047;SHT31;58703;48.978;8.982;2022-09-13T12:24:47;28.61;38.50
71047;SHT31;58703;48.978;8.982;2022-09-13T12:27:30;29.34;37.76
71047;SHT31;58703;48.978;8.982;2022-09-13T12:32:37;28.82;37.89
71047;SHT31;58703;48.978;8.982;2022-09-13T12:49:55;29.80;37.84
71047;SHT31;58703;48.978;8.982;2022-09-13T13:03:49;32.22;34.27
71047;SHT31;58703;48.978;8.982;2022-09-13T13:08:56;29.94;37.87
71047;SHT31;58703;48.978;8.982;2022-09-13T13:11:25;29.82;37.31
71047;SHT31;58703;48.978;8.982;2022-09-13T13:13:55;30.65;36.77
71047;SHT31;58703;48.978;8.982;2022-09-13T13:16:36;31.01;35.58
71047;SHT31;58703;48.978;8.982;2022-09-13T13:19:04;31.70;35.46
71047;SHT31;58703;48.978;8.982;2022-09-13T13:21:38;32.06;34.73
71047;SHT31;58703;48.978;8.982;2022-09-13T13:26:56;31.71;35.14
71047;SHT31;58703;48.978;8.982;2022-09-13T13:29:29;31.19;35.92
71047;SHT31;58703;48.978;8.982;2022-09-13T13:34:46;33.68;34.34
71047;SHT31;58703;48.978;8.982;2022-09-13T13:39:45;31.74;34.99
71047;SHT31;58703;48.978;8.982;2022-09-13T13:42:28;29.94;37.95
71047;SHT31;58703;48.978;8.982;2022-09-13T13:50:13;29.46;38.93
71047;SHT31;58703;48.978;8.982;2022-09-13T13:52:55;29.74;38.24
71047;SHT31;58703;48.978;8.982;2022-09-13T13:55:40;29.60;38.46
71047;SHT31;58703;48.978;8.982;2022-09-13T14:00:46;30.19;36.81
71047;SHT31;58703;48.978;8.982;2022-09-13T14:03:25;31.71;35.76
71047;SHT31;58703;48.978;8.982;2022-09-13T14:08:58;31.13;36.06
71047;SHT31;58703;48.978;8.982;2022-09-13T14:14:21;32.06;34.55
71047;SHT31;58703;48.978;8.982;2022-09-13T14:19:49;31.50;36.14
71047;SHT31;58703;48.978;8.982;2022-09-13T14:22:20;30.90;36.43
71047;SHT31;58703;48.978;8.982;2022-09-13T14:24:51;30.40;37.38
71047;SHT31;58703;48.978;8.982;2022-09-13T14:27:23;30.62;36.69
71047;SHT31;58703;48.978;8.982;2022-09-13T14:29:52;30.05;37.57
71047;SHT31;58703;48.978;8.982;2022-09-13T14:32:21;30.32;36.90
71047;SHT31;58703;48.978;8.982;2022-09-13T14:34:58;30.05;36.52
71047;SHT31;58703;48.978;8.982;2022-09-13T14:37:30;31.48;35.05
71047;SHT31;58703;48.978;8.982;2022-09-13T14:42:42;32.06;34.03
71047;SHT31;58703;48.978;8.982;2022-09-13T14:45:15;30.52;35.80
71047;SHT31;58703;48.978;8.982;2022-09-13T14:50:33;30.65;36.20
71047;SHT31;58703;48.978;8.982;2022-09-13T14:53:01;32.56;33.88
71047;SHT31;58703;48.978;8.982;2022-09-13T14:55:41;32.02;33.33
71047;SHT31;58703;48.978;8.982;2022-09-13T14:58:15;31.31;34.31
71047;SHT31;58703;48.978;8.982;2022-09-13T15:00:49;31.54;34.67
71047;SHT31;58703;48.978;8.982;2022-09-13T15:03:17;31.91;34.48
71047;SHT31;58703;48.978;8.982;2022-09-13T15:05:54;32.05;34.29
71047;SHT31;58703;48.978;8.982;2022-09-13T15:10:57;30.15;37.09
71047;SHT31;58703;48.978;8.982;2022-09-13T15:13:23;29.74;38.10
71047;SHT31;58703;48.978;8.982;2022-09-13T15:15:49;29.60;38.31
71047;SHT31;58703;48.978;8.982;2022-09-13T15:20:52;30.48;37.75
71047;SHT31;58703;48.978;8.982;2022-09-13T15:23:33;30.09;38.09
71047;SHT31;58703;48.978;8.982;2022-09-13T15:26:19;29.26;39.49
71047;SHT31;58703;48.978;8.982;2022-09-13T15:31:24;29.02;39.12
71047;SHT31;58703;48.978;8.982;2022-09-13T15:34:10;28.85;39.28
71047;SHT31;58703;48.978;8.982;2022-09-13T15:36:36;28.91;39.94
71047;SHT31;58703;48.978;8.982;2022-09-13T15:39:09;28.68;39.30
71047;SHT31;58703;48.978;8.982;2022-09-13T15:41:56;28.61;39.79
71047;SHT31;58703;48.978;8.982;2022-09-13T15:44:24;28.96;39.27
71047;SHT31;58703;48.978;8.982;2022-09-13T15:46:52;29.10;39.01
71047;SHT31;58703;48.978;8.982;2022-09-13T15:49:20;28.93;39.47
71047;SHT31;58703;48.978;8.982;2022-09-13T15:51:52;28.58;39.84
71047;SHT31;58703;48.978;8.982;2022-09-13T15:54:18;28.55;41.15
71047;SHT31;58703;48.978;8.982;2022-09-13T15:56:47;28.42;41.29
71047;SHT31;58703;48.978;8.982;2022-09-13T15:59:18;28.25;41.54
71047;SHT31;58703;48.978;8.982;2022-09-13T16:01:44;28.51;41.35
71047;SHT31;58703;48.978;8.982;2022-09-13T16:04:12;28.17;41.45
71047;SHT31;58703;48.978;8.982;2022-09-13T16:06:39;28.10;42.82
71047;SHT31;58703;48.978;8.982;2022-09-13T16:11:40;27.89;42.14
71047;SHT31;58703;48.978;8.982;2022-09-13T16:14:06;27.77;41.47
71047;SHT31;58703;48.978;8.982;2022-09-13T16:16:31;27.93;42.21
71047;SHT31;58703;48.978;8.982;2022-09-13T16:18:58;27.74;41.98
71047;SHT31;58703;48.978;8.982;2022-09-13T16:21:24;27.28;42.84
71047;SHT31;58703;48.978;8.982;2022-09-13T16:23:49;27.05;43.45
71047;SHT31;58703;48.978;8.982;2022-09-13T16:26:15;26.98;43.64
71047;SHT31;58703;48.978;8.982;2022-09-13T16:28:41;27.03;43.90
71047;SHT31;58703;48.978;8.982;2022-09-13T16:31:06;27.16;44.42
71047;SHT31;58703;48.978;8.982;2022-09-13T16:33:32;27.05;43.97
71047;SHT31;58703;48.978;8.982;2022-09-13T16:35:59;27.26;44.55
71047;SHT31;58703;48.978;8.982;2022-09-13T16:38:24;27.22;44.40
71047;SHT31;58703;48.978;8.982;2022-09-13T16:40:50;27.23;44.01
71047;SHT31;58703;48.978;8.982;2022-09-13T16:43:15;27.15;44.20
71047;SHT31;58703;48.978;8.982;2022-09-13T16:45:42;27.05;44.34
71047;SHT31;58703;48.978;8.982;2022-09-13T16:48:09;26.92;44.50
71047;SHT31;58703;48.978;8.982;2022-09-13T16:50:38;26.85;45.02
71047;SHT31;58703;48.978;8.982;2022-09-13T16:53:04;26.65;45.38
71047;SHT31;58703;48.978;8.982;2022-09-13T16:55:30;26.57;45.83
71047;SHT31;58703;48.978;8.982;2022-09-13T16:57:57;26.34;45.94
71047;SHT31;58703;48.978;8.982;2022-09-13T17:00:23;26.24;46.27
71047;SHT31;58703;48.978;8.982;2022-09-13T17:02:54;26.12;46.57
71047;SHT31;58703;48.978;8.982;2022-09-13T17:05:22;25.96;47.10
71047;SHT31;58703;48.978;8.982;2022-09-13T17:07:47;25.82;47.24
71047;SHT31;58703;48.978;8.982;2022-09-13T17:10:15;25.63;47.38
71047;SHT31;58703;48.978;8.982;2022-09-13T17:12:41;25.46;48.01
71047;SHT31;58703;48.978;8.982;2022-09-13T17:15:08;25.38;48.16
71047;SHT31;58703;48.978;8.982;2022-09-13T17:17:35;25.05;49.22
71047;SHT31;58703;48.978;8.982;2022-09-13T17:20:04;24.91;49.62
71047;SHT31;58703;48.978;8.982;2022-09-13T17:22:30;24.74;49.99
71047;SHT31;58703;48.978;8.982;2022-09-13T17:24:56;24.61;50.45
71047;SHT31;58703;48.978;8.982;2022-09-13T17:27:22;24.71;50.20
71047;SHT31;58703;48.978;8.982;2022-09-13T17:29:47;24.80;50.25
71047;SHT31;58703;48.978;8.982;2022-09-13T17:32:13;24.80;50.78
71047;SHT31;58703;48.978;8.982;2022-09-13T17:34:39;24.73;51.54
71047;SHT31;58703;48.978;8.982;2022-09-13T17:37:04;24.67;52.10
71047;SHT31;58703;48.978;8.982;2022-09-13T17:39:32;24.59;56.10
71047;SHT31;58703;48.978;8.982;2022-09-13T17:41:58;24.30;56.10
71047;SHT31;58703;48.978;8.982;2022-09-13T17:44:24;24.02;56.15
71047;SHT31;58703;48.978;8.982;2022-09-13T17:46:50;23.72;56.61
71047;SHT31;58703;48.978;8.982;2022-09-13T17:49:15;23.42;57.74
71047;SHT31;58703;48.978;8.982;2022-09-13T17:51:42;23.18;59.41
71047;SHT31;58703;48.978;8.982;2022-09-13T17:54:09;23.14;58.34
71047;SHT31;58703;48.978;8.982;2022-09-13T17:56:41;23.24;57.38
71047;SHT31;58703;48.978;8.982;2022-09-13T18:01:50;23.17;57.84
71047;SHT31;58703;48.978;8.982;2022-09-13T18:04:17;23.22;57.50
71047;SHT31;58703;48.978;8.982;2022-09-13T18:06:43;23.14;58.54
71047;SHT31;58703;48.978;8.982;2022-09-13T18:09:11;23.10;58.16
71047;SHT31;58703;48.978;8.982;2022-09-13T18:11:39;23.10;58.02
71047;SHT31;58703;48.978;8.982;2022-09-13T18:14:06;23.04;57.97
71047;SHT31;58703;48.978;8.982;2022-09-13T18:16:32;22.98;58.04
71047;SHT31;58703;48.978;8.982;2022-09-13T18:18:59;22.93;58.00
71047;SHT31;58703;48.978;8.982;2022-09-13T18:21:25;22.88;57.88
71047;SHT31;58703;48.978;8.982;2022-09-13T18:23:53;22.97;57.77
71047;SHT31;58703;48.978;8.982;2022-09-13T18:26:21;22.97;57.62
71047;SHT31;58703;48.978;8.982;2022-09-13T18:28:54;22.98;57.79
71047;SHT31;58703;48.978;8.982;2022-09-13T18:31:21;22.91;58.08
71047;SHT31;58703;48.978;8.982;2022-09-13T18:33:47;22.78;58.70
71047;SHT31;58703;48.978;8.982;2022-09-13T18:36:17;22.59;59.30
71047;SHT31;58703;48.978;8.982;2022-09-13T18:38:46;22.50;59.43
71047;SHT31;58703;48.978;8.982;2022-09-13T18:43:41;22.28;60.23
71047;SHT31;58703;48.978;8.982;2022-09-13T18:46:11;22.23;61.65
71047;SHT31;58703;48.978;8.982;2022-09-13T18:48:38;22.19;62.03
71047;SHT31;58703;48.978;8.982;2022-09-13T18:51:09;21.94;63.29
71047;SHT31;58703;48.978;8.982;2022-09-13T18:53:37;21.66;62.91
71047;SHT31;58703;48.978;8.982;2022-09-13T18:56:05;21.37;65.34
71047;SHT31;58703;48.978;8.982;2022-09-13T18:58:34;20.92;66.99
71047;SHT31;58703;48.978;8.982;2022-09-13T19:01:05;20.83;67.32